sensor_id;sensor_type;location;lat;lon;timestamp;P1;durP1;ratioP1;P2;durP2;ratioP2
77078;SDS011;66004;55.096;38.760;2023-09-19T00:01:06;21.63;;;9.70;;
77078;SDS011;66004;55.096;38.760;2023-09-19T00:03:37;32.45;;;10.07;;
77078;SDS011;66004;55.096;38.760;2023-09-19T00:06:03;21.40;;;9.85;;
77078;SDS011;66004;55.096;38.760;2023-09-19T00:08:30;20.02;;;9.32;;
77078;SDS011;66004;55.096;38.760;2023-09-19T00:10:55;20.83;;;9.00;;
77078;SDS011;66004;55.096;38.760;2023-09-19T00:13:28;19.00;;;8.38;;
77078;SDS011;66004;55.096;38.760;2023-09-19T00:15:53;18.20;;;8.73;;
77078;SDS011;66004;55.096;38.760;2023-09-19T00:18:20;21.63;;;8.50;;
77078;SDS011;66004;55.096;38.760;2023-09-19T00:20:47;18.30;;;8.10;;
77078;SDS011;66004;55.096;38.760;2023-09-19T00:23:13;17.48;;;8.77;;
77078;SDS011;66004;55.096;38.760;2023-09-19T00:25:38;21.50;;;8.25;;
77078;SDS011;66004;55.096;38.760;2023-09-19T00:28:05;17.42;;;8.57;;
77078;SDS011;66004;55.096;38.760;2023-09-19T00:30:32;18.02;;;8.18;;
77078;SDS011;66004;55.096;38.760;2023-09-19T00:32:59;17.00;;;8.93;;
77078;SDS011;66004;55.096;38.760;2023-09-19T00:35:25;16.17;;;8.60;;
77078;SDS011;66004;55.096;38.760;2023-09-19T00:37:52;17.90;;;8.48;;
77078;SDS011;66004;55.096;38.760;2023-09-19T00:40:18;17.88;;;8.15;;
77078;SDS011;66004;55.096;38.760;2023-09-19T00:42:46;18.42;;;8.48;;
77078;SDS011;66004;55.096;38.760;2023-09-19T00:45:13;17.80;;;8.70;;
77078;SDS011;66004;55.096;38.760;2023-09-19T00:47:49;15.80;;;7.82;;
77078;SDS011;66004;55.096;38.760;2023-09-19T00:50:19;17.45;;;8.50;;
77078;SDS011;66004;55.096;38.760;2023-09-19T00:52:47;16.35;;;8.25;;
77078;SDS011;66004;55.096;38.760;2023-09-19T00:55:15;16.77;;;8.27;;
77078;SDS011;66004;55.096;38.760;2023-09-19T00:57:41;12.82;;;7.45;;
77078;SDS011;66004;55.096;38.760;2023-09-19T01:00:09;13.75;;;7.75;;
77078;SDS011;66004;55.096;38.760;2023-09-19T01:02:39;17.20;;;8.88;;
77078;SDS011;66004;55.096;38.760;2023-09-19T01:05:08;15.57;;;7.90;;
77078;SDS011;66004;55.096;38.760;2023-09-19T01:07:33;14.75;;;7.93;;
77078;SDS011;66004;55.096;38.760;2023-09-19T01:10:00;14.88;;;8.52;;
77078;SDS011;66004;55.096;38.760;2023-09-19T01:12:31;16.30;;;8.18;;
77078;SDS011;66004;55.096;38.760;2023-09-19T01:26:11;52.47;;;11.02;;
77078;SDS011;66004;55.096;38.760;2023-09-19T01:32:18;28.92;;;10.90;;
77078;SDS011;66004;55.096;38.760;2023-09-19T01:34:50;28.70;;;10.90;;
77078;SDS011;66004;55.096;38.760;2023-09-19T01:37:20;32.95;;;11.27;;
77078;SDS011;66004;55.096;38.760;2023-09-19T01:39:54;35.00;;;12.10;;
77078;SDS011;66004;55.096;38.760;2023-09-19T01:45:33;34.72;;;11.82;;
77078;SDS011;66004;55.096;38.760;2023-09-19T01:48:12;35.15;;;10.70;;
77078;SDS011;66004;55.096;38.760;2023-09-19T01:50:55;28.92;;;11.02;;
77078;SDS011;66004;55.096;38.760;2023-09-19T01:56:26;25.40;;;11.07;;
77078;SDS011;66004;55.096;38.760;2023-09-19T01:58:59;24.90;;;10.77;;
77078;SDS011;66004;55.096;38.760;2023-09-19T02:01:31;25.70;;;10.40;;
77078;SDS011;66004;55.096;38.760;2023-09-19T02:03:58;21.20;;;10.48;;
77078;SDS011;66004;55.096;38.760;2023-09-19T02:06:24;23.45;;;10.38;;
77078;SDS011;66004;55.096;38.760;2023-09-19T02:08:50;19.02;;;9.95;;
77078;SDS011;66004;55.096;38.760;2023-09-19T02:11:16;25.35;;;10.57;;
77078;SDS011;66004;55.096;38.760;2023-09-19T02:13:42;23.23;;;9.95;;
77078;SDS011;66004;55.096;38.760;2023-09-19T02:16:08;26.67;;;11.23;;
77078;SDS011;66004;55.096;38.760;2023-09-19T02:18:35;26.27;;;10.75;;
77078;SDS011;66004;55.096;38.760;2023-09-19T02:21:01;24.08;;;11.63;;
77078;SDS011;66004;55.096;38.760;2023-09-19T02:23:29;23.50;;;9.93;;
77078;SDS011;66004;55.096;38.760;2023-09-19T02:25:55;23.00;;;10.60;;
77078;SDS011;66004;55.096;38.760;2023-09-19T02:28:29;23.75;;;10.48;;
77078;SDS011;66004;55.096;38.760;2023-09-19T02:30:58;23.98;;;10.48;;
77078;SDS011;66004;55.096;38.760;2023-09-19T02:33:23;28.92;;;10.90;;
77078;SDS011;66004;55.096;38.760;2023-09-19T02:35:49;19.90;;;10.18;;
77078;SDS011;66004;55.096;38.760;2023-09-19T02:38:15;23.25;;;10.15;;
77078;SDS011;66004;55.096;38.760;2023-09-19T02:40:45;26.17;;;10.45;;
77078;SDS011;66004;55.096;38.760;2023-09-19T02:43:11;25.52;;;9.55;;
77078;SDS011;66004;55.096;38.760;2023-09-19T02:45:37;21.20;;;8.55;;
77078;SDS011;66004;55.096;38.760;2023-09-19T02:48:02;20.13;;;8.93;;
77078;SDS011;66004;55.096;38.760;2023-09-19T02:50:29;24.45;;;7.70;;
77078;SDS011;66004;55.096;38.760;2023-09-19T02:52:54;21.88;;;8.57;;
77078;SDS011;66004;55.096;38.760;2023-09-19T02:55:20;18.10;;;8.27;;
77078;SDS011;66004;55.096;38.760;2023-09-19T02:57:50;18.23;;;7.88;;
77078;SDS011;66004;55.096;38.760;2023-09-19T03:00:19;23.00;;;8.82;;
77078;SDS011;66004;55.096;38.760;2023-09-19T03:02:50;17.27;;;8.10;;
77078;SDS011;66004;55.096;38.760;2023-09-19T03:05:18;21.83;;;7.53;;
77078;SDS011;66004;55.096;38.760;2023-09-19T03:07:44;18.83;;;7.30;;
77078;SDS011;66004;55.096;38.760;2023-09-19T03:10:12;21.98;;;8.38;;
77078;SDS011;66004;55.096;38.760;2023-09-19T03:12:40;18.52;;;7.93;;
77078;SDS011;66004;55.096;38.760;2023-09-19T03:15:05;18.58;;;7.38;;
77078;SDS011;66004;55.096;38.760;2023-09-19T03:17:33;15.80;;;7.20;;
77078;SDS011;66004;55.096;38.760;2023-09-19T03:19:59;16.67;;;7.80;;
77078;SDS011;66004;55.096;38.760;2023-09-19T03:22:26;16.42;;;7.40;;
77078;SDS011;66004;55.096;38.760;2023-09-19T03:24:52;18.98;;;8.07;;
77078;SDS011;66004;55.096;38.760;2023-09-19T03:27:18;17.08;;;7.03;;
77078;SDS011;66004;55.096;38.760;2023-09-19T03:29:45;16.73;;;7.35;;
77078;SDS011;66004;55.096;38.760;2023-09-19T03:32:11;19.08;;;7.20;;
77078;SDS011;66004;55.096;38.760;2023-09-19T03:34:37;14.70;;;6.75;;
77078;SDS011;66004;55.096;38.760;2023-09-19T03:37:07;15.27;;;7.13;;
77078;SDS011;66004;55.096;38.760;2023-09-19T03:39:32;14.00;;;6.90;;
77078;SDS011;66004;55.096;38.760;2023-09-19T03:41:58;17.02;;;7.35;;
77078;SDS011;66004;55.096;38.760;2023-09-19T03:44:23;16.70;;;7.13;;
77078;SDS011;66004;55.096;38.760;2023-09-19T03:46:49;13.73;;;6.65;;
77078;SDS011;66004;55.096;38.760;2023-09-19T03:49:14;13.75;;;6.97;;
77078;SDS011;66004;55.096;38.760;2023-09-19T03:51:40;11.95;;;6.13;;
77078;SDS011;66004;55.096;38.760;2023-09-19T03:54:06;14.90;;;6.57;;
77078;SDS011;66004;55.096;38.760;2023-09-19T03:56:33;21.65;;;8.15;;
77078;SDS011;66004;55.096;38.760;2023-09-19T03:58:58;23.90;;;8.30;;
77078;SDS011;66004;55.096;38.760;2023-09-19T04:01:24;25.05;;;9.52;;
77078;SDS011;66004;55.096;38.760;2023-09-19T04:03:49;21.00;;;8.63;;
77078;SDS011;66004;55.096;38.760;2023-09-19T04:06:17;21.98;;;9.35;;
77078;SDS011;66004;55.096;38.760;2023-09-19T04:08:43;22.15;;;9.15;;
77078;SDS011;66004;55.096;38.760;2023-09-19T04:11:09;23.83;;;8.80;;
77078;SDS011;66004;55.096;38.760;2023-09-19T04:13:35;22.98;;;8.32;;
77078;SDS011;66004;55.096;38.760;2023-09-19T04:16:02;23.55;;;8.70;;
77078;SDS011;66004;55.096;38.760;2023-09-19T04:18:29;21.65;;;8.15;;
77078;SDS011;66004;55.096;38.760;2023-09-19T04:20:58;19.90;;;7.50;;
77078;SDS011;66004;55.096;38.760;2023-09-19T04:23:23;20.38;;;7.30;;
77078;SDS011;66004;55.096;38.760;2023-09-19T04:25:49;17.80;;;7.53;;
77078;SDS011;66004;55.096;38.760;2023-09-19T04:28:15;16.10;;;6.85;;
77078;SDS011;66004;55.096;38.760;2023-09-19T04:30:41;16.33;;;7.22;;
77078;SDS011;66004;55.096;38.760;2023-09-19T04:33:07;16.25;;;6.60;;
77078;SDS011;66004;55.096;38.760;2023-09-19T04:35:32;15.32;;;6.63;;
77078;SDS011;66004;55.096;38.760;2023-09-19T04:37:59;14.38;;;6.47;;
77078;SDS011;66004;55.096;38.760;2023-09-19T04:40:24;15.23;;;7.43;;
77078;SDS011;66004;55.096;38.760;2023-09-19T04:42:54;14.30;;;6.75;;
77078;SDS011;66004;55.096;38.760;2023-09-19T04:47:49;15.80;;;6.97;;
77078;SDS011;66004;55.096;38.760;2023-09-19T04:50:14;15.98;;;6.95;;
77078;SDS011;66004;55.096;38.760;2023-09-19T04:52:40;11.50;;;6.53;;
77078;SDS011;66004;55.096;38.760;2023-09-19T04:55:18;15.98;;;7.35;;
77078;SDS011;66004;55.096;38.760;2023-09-19T04:57:48;15.52;;;6.88;;
77078;SDS011;66004;55.096;38.760;2023-09-19T05:00:18;20.80;;;7.07;;
77078;SDS011;66004;55.096;38.760;2023-09-19T05:02:52;15.75;;;7.03;;
77078;SDS011;66004;55.096;38.760;2023-09-19T05:05:21;15.60;;;6.90;;
77078;SDS011;66004;55.096;38.760;2023-09-19T05:07:48;17.15;;;6.25;;
77078;SDS011;66004;55.096;38.760;2023-09-19T05:10:14;16.23;;;6.78;;
77078;SDS011;66004;55.096;38.760;2023-09-19T05:12:43;15.77;;;6.70;;
77078;SDS011;66004;55.096;38.760;2023-09-19T05:15:12;14.82;;;7.35;;
77078;SDS011;66004;55.096;38.760;2023-09-19T05:17:37;18.02;;;8.30;;
77078;SDS011;66004;55.096;38.760;2023-09-19T05:20:04;15.80;;;7.57;;
77078;SDS011;66004;55.096;38.760;2023-09-19T05:22:50;22.98;;;8.20;;
77078;SDS011;66004;55.096;38.760;2023-09-19T05:25:22;21.35;;;8.25;;
77078;SDS011;66004;55.096;38.760;2023-09-19T05:27:48;19.42;;;8.60;;
77078;SDS011;66004;55.096;38.760;2023-09-19T05:30:15;15.80;;;7.28;;
77078;SDS011;66004;55.096;38.760;2023-09-19T05:32:41;19.67;;;9.32;;
77078;SDS011;66004;55.096;38.760;2023-09-19T05:35:06;15.93;;;8.45;;
77078;SDS011;66004;55.096;38.760;2023-09-19T05:37:34;17.88;;;9.00;;
77078;SDS011;66004;55.096;38.760;2023-09-19T05:40:02;20.20;;;8.68;;
77078;SDS011;66004;55.096;38.760;2023-09-19T05:42:32;15.30;;;8.57;;
77078;SDS011;66004;55.096;38.760;2023-09-19T05:44:58;17.92;;;8.65;;
77078;SDS011;66004;55.096;38.760;2023-09-19T05:47:23;16.13;;;7.93;;
77078;SDS011;66004;55.096;38.760;2023-09-19T05:49:50;18.95;;;8.65;;
77078;SDS011;66004;55.096;38.760;2023-09-19T05:52:16;14.07;;;8.25;;
77078;SDS011;66004;55.096;38.760;2023-09-19T05:54:42;15.25;;;8.50;;
77078;SDS011;66004;55.096;38.760;2023-09-19T05:57:08;20.35;;;7.80;;
77078;SDS011;66004;55.096;38.760;2023-09-19T05:59:37;17.00;;;8.30;;
77078;SDS011;66004;55.096;38.760;2023-09-19T06:02:04;15.32;;;7.28;;
77078;SDS011;66004;55.096;38.760;2023-09-19T06:04:31;15.82;;;8.57;;
77078;SDS011;66004;55.096;38.760;2023-09-19T06:06:56;22.60;;;7.63;;
77078;SDS011;66004;55.096;38.760;2023-09-19T06:09:22;17.52;;;7.55;;
77078;SDS011;66004;55.096;38.760;2023-09-19T06:11:48;13.98;;;8.18;;
77078;SDS011;66004;55.096;38.760;2023-09-19T06:14:13;14.88;;;7.75;;
77078;SDS011;66004;55.096;38.760;2023-09-19T06:16:39;14.48;;;7.28;;
77078;SDS011;66004;55.096;38.760;2023-09-19T06:19:06;10.93;;;6.57;;
77078;SDS011;66004;55.096;38.760;2023-09-19T06:21:34;14.05;;;7.25;;
77078;SDS011;66004;55.096;38.760;2023-09-19T06:23:59;16.60;;;7.20;;
77078;SDS011;66004;55.096;38.760;2023-09-19T06:26:25;15.13;;;6.97;;
77078;SDS011;66004;55.096;38.760;2023-09-19T06:28:52;13.30;;;7.05;;
77078;SDS011;66004;55.096;38.760;2023-09-19T06:31:17;15.73;;;6.85;;
77078;SDS011;66004;55.096;38.760;2023-09-19T06:33:43;17.65;;;7.38;;
77078;SDS011;66004;55.096;38.760;2023-09-19T06:36:09;15.15;;;6.60;;
77078;SDS011;66004;55.096;38.760;2023-09-19T06:38:35;16.05;;;7.38;;
77078;SDS011;66004;55.096;38.760;2023-09-19T06:41:01;18.95;;;7.68;;
77078;SDS011;66004;55.096;38.760;2023-09-19T06:43:32;15.30;;;7.38;;
77078;SDS011;66004;55.096;38.760;2023-09-19T06:45:59;14.57;;;7.18;;
77078;SDS011;66004;55.096;38.760;2023-09-19T06:48:25;18.67;;;7.35;;
77078;SDS011;66004;55.096;38.760;2023-09-19T06:50:53;19.63;;;8.20;;
77078;SDS011;66004;55.096;38.760;2023-09-19T06:53:20;16.75;;;7.20;;
77078;SDS011;66004;55.096;38.760;2023-09-19T06:55:46;15.85;;;7.70;;
77078;SDS011;66004;55.096;38.760;2023-09-19T06:58:12;15.63;;;6.97;;
77078;SDS011;66004;55.096;38.760;2023-09-19T07:00:38;12.75;;;6.38;;
77078;SDS011;66004;55.096;38.760;2023-09-19T07:03:07;12.73;;;5.80;;
77078;SDS011;66004;55.096;38.760;2023-09-19T07:05:36;13.98;;;7.28;;
77078;SDS011;66004;55.096;38.760;2023-09-19T07:08:04;16.48;;;6.72;;
77078;SDS011;66004;55.096;38.760;2023-09-19T07:10:31;11.63;;;6.05;;
77078;SDS011;66004;55.096;38.760;2023-09-19T07:13:03;14.70;;;6.82;;
77078;SDS011;66004;55.096;38.760;2023-09-19T07:15:34;14.98;;;6.15;;
77078;SDS011;66004;55.096;38.760;2023-09-19T07:18:11;13.65;;;7.15;;
77078;SDS011;66004;55.096;38.760;2023-09-19T07:20:41;11.10;;;6.78;;
77078;SDS011;66004;55.096;38.760;2023-09-19T07:23:14;13.68;;;7.15;;
77078;SDS011;66004;55.096;38.760;2023-09-19T07:25:40;16.42;;;6.85;;
77078;SDS011;66004;55.096;38.760;2023-09-19T07:28:09;12.80;;;6.53;;
77078;SDS011;66004;55.096;38.760;2023-09-19T07:30:37;10.75;;;6.70;;
77078;SDS011;66004;55.096;38.760;2023-09-19T07:33:04;13.82;;;6.70;;
77078;SDS011;66004;55.096;38.760;2023-09-19T07:35:31;14.30;;;7.03;;
77078;SDS011;66004;55.096;38.760;2023-09-19T07:37:57;12.77;;;6.82;;
77078;SDS011;66004;55.096;38.760;2023-09-19T07:40:23;18.38;;;7.50;;
77078;SDS011;66004;55.096;38.760;2023-09-19T07:42:52;12.13;;;7.68;;
77078;SDS011;66004;55.096;38.760;2023-09-19T07:45:17;13.82;;;7.22;;
77078;SDS011;66004;55.096;38.760;2023-09-19T07:47:50;16.95;;;7.07;;
77078;SDS011;66004;55.096;38.760;2023-09-19T07:50:16;12.82;;;6.90;;
77078;SDS011;66004;55.096;38.760;2023-09-19T07:52:46;14.32;;;7.55;;
77078;SDS011;66004;55.096;38.760;2023-09-19T07:55:12;12.25;;;7.03;;
77078;SDS011;66004;55.096;38.760;2023-09-19T07:57:41;12.13;;;7.03;;
77078;SDS011;66004;55.096;38.760;2023-09-19T08:00:07;13.60;;;6.88;;
77078;SDS011;66004;55.096;38.760;2023-09-19T08:02:35;13.65;;;6.35;;
77078;SDS011;66004;55.096;38.760;2023-09-19T08:05:06;10.13;;;6.32;;
77078;SDS011;66004;55.096;38.760;2023-09-19T08:07:39;12.10;;;6.88;;
77078;SDS011;66004;55.096;38.760;2023-09-19T08:10:06;15.38;;;6.53;;
77078;SDS011;66004;55.096;38.760;2023-09-19T08:12:33;15.35;;;6.47;;
77078;SDS011;66004;55.096;38.760;2023-09-19T08:15:01;13.65;;;6.50;;
77078;SDS011;66004;55.096;38.760;2023-09-19T08:17:28;16.35;;;6.80;;
77078;SDS011;66004;55.096;38.760;2023-09-19T08:19:54;14.15;;;7.13;;
77078;SDS011;66004;55.096;38.760;2023-09-19T08:22:19;14.60;;;6.70;;
77078;SDS011;66004;55.096;38.760;2023-09-19T08:24:46;13.30;;;6.40;;
77078;SDS011;66004;55.096;38.760;2023-09-19T08:27:12;13.00;;;6.57;;
77078;SDS011;66004;55.096;38.760;2023-09-19T08:29:38;12.50;;;6.20;;
77078;SDS011;66004;55.096;38.760;2023-09-19T08:32:05;14.27;;;6.57;;
77078;SDS011;66004;55.096;38.760;2023-09-19T08:34:30;13.00;;;6.45;;
77078;SDS011;66004;55.096;38.760;2023-09-19T08:37:00;16.90;;;6.95;;
77078;SDS011;66004;55.096;38.760;2023-09-19T08:39:25;16.35;;;6.82;;
77078;SDS011;66004;55.096;38.760;2023-09-19T08:41:58;10.77;;;6.32;;
77078;SDS011;66004;55.096;38.760;2023-09-19T08:44:27;10.23;;;6.35;;
77078;SDS011;66004;55.096;38.760;2023-09-19T08:47:10;12.82;;;7.28;;
77078;SDS011;66004;55.096;38.760;2023-09-19T08:52:20;12.48;;;6.55;;
77078;SDS011;66004;55.096;38.760;2023-09-19T08:54:48;12.75;;;7.03;;
77078;SDS011;66004;55.096;38.760;2023-09-19T08:57:18;14.43;;;6.68;;
77078;SDS011;66004;55.096;38.760;2023-09-19T08:59:47;16.35;;;7.55;;
77078;SDS011;66004;55.096;38.760;2023-09-19T09:02:15;16.27;;;6.45;;
77078;SDS011;66004;55.096;38.760;2023-09-19T09:04:42;13.68;;;6.97;;
77078;SDS011;66004;55.096;38.760;2023-09-19T09:07:12;16.35;;;7.03;;
77078;SDS011;66004;55.096;38.760;2023-09-19T09:09:38;12.45;;;6.43;;
77078;SDS011;66004;55.096;38.760;2023-09-19T09:12:14;14.23;;;7.07;;
77078;SDS011;66004;55.096;38.760;2023-09-19T09:14:42;16.20;;;7.10;;
77078;SDS011;66004;55.096;38.760;2023-09-19T09:17:10;13.23;;;6.57;;
77078;SDS011;66004;55.096;38.760;2023-09-19T09:19:37;12.73;;;6.82;;
77078;SDS011;66004;55.096;38.760;2023-09-19T09:22:06;13.55;;;7.07;;
77078;SDS011;66004;55.096;38.760;2023-09-19T09:24:33;13.13;;;7.25;;
77078;SDS011;66004;55.096;38.760;2023-09-19T09:26:59;12.25;;;6.75;;
77078;SDS011;66004;55.096;38.760;2023-09-19T09:29:41;11.20;;;7.00;;
77078;SDS011;66004;55.096;38.760;2023-09-19T09:34:56;13.25;;;6.93;;
77078;SDS011;66004;55.096;38.760;2023-09-19T09:37:24;12.40;;;6.68;;
77078;SDS011;66004;55.096;38.760;2023-09-19T09:40:01;12.73;;;7.15;;
77078;SDS011;66004;55.096;38.760;2023-09-19T09:42:39;14.10;;;6.55;;
77078;SDS011;66004;55.096;38.760;2023-09-19T09:45:12;10.30;;;6.20;;
77078;SDS011;66004;55.096;38.760;2023-09-19T09:48:04;14.10;;;6.32;;
77078;SDS011;66004;55.096;38.760;2023-09-19T09:50:39;12.10;;;6.50;;
77078;SDS011;66004;55.096;38.760;2023-09-19T09:53:28;12.38;;;6.45;;
77078;SDS011;66004;55.096;38.760;2023-09-19T09:55:59;16.38;;;6.03;;
77078;SDS011;66004;55.096;38.760;2023-09-19T09:58:35;14.65;;;6.45;;
77078;SDS011;66004;55.096;38.760;2023-09-19T10:01:14;11.90;;;6.22;;
77078;SDS011;66004;55.096;38.760;2023-09-19T10:03:41;17.50;;;7.55;;
77078;SDS011;66004;55.096;38.760;2023-09-19T10:06:14;12.10;;;5.72;;
77078;SDS011;66004;55.096;38.760;2023-09-19T10:11:35;15.10;;;7.13;;
77078;SDS011;66004;55.096;38.760;2023-09-19T10:14:16;12.50;;;6.65;;
77078;SDS011;66004;55.096;38.760;2023-09-19T10:16:45;11.27;;;6.35;;
77078;SDS011;66004;55.096;38.760;2023-09-19T10:21:58;15.52;;;6.78;;
77078;SDS011;66004;55.096;38.760;2023-09-19T10:24:26;12.55;;;6.63;;
77078;SDS011;66004;55.096;38.760;2023-09-19T10:26:53;15.00;;;7.70;;
77078;SDS011;66004;55.096;38.760;2023-09-19T10:29:20;12.88;;;6.13;;
77078;SDS011;66004;55.096;38.760;2023-09-19T10:31:49;12.90;;;7.03;;
77078;SDS011;66004;55.096;38.760;2023-09-19T10:34:18;13.73;;;6.40;;
77078;SDS011;66004;55.096;38.760;2023-09-19T10:36:47;17.02;;;7.13;;
77078;SDS011;66004;55.096;38.760;2023-09-19T10:39:16;13.27;;;6.57;;
77078;SDS011;66004;55.096;38.760;2023-09-19T10:41:50;16.58;;;6.82;;
77078;SDS011;66004;55.096;38.760;2023-09-19T10:44:25;18.02;;;7.47;;
77078;SDS011;66004;55.096;38.760;2023-09-19T10:46:51;18.27;;;7.00;;
77078;SDS011;66004;55.096;38.760;2023-09-19T10:49:34;17.60;;;7.50;;
77078;SDS011;66004;55.096;38.760;2023-09-19T10:52:00;14.75;;;7.50;;
77078;SDS011;66004;55.096;38.760;2023-09-19T10:54:31;17.40;;;8.15;;
77078;SDS011;66004;55.096;38.760;2023-09-19T10:57:02;16.50;;;7.50;;
77078;SDS011;66004;55.096;38.760;2023-09-19T10:59:30;17.58;;;6.03;;
77078;SDS011;66004;55.096;38.760;2023-09-19T11:02:00;12.55;;;6.30;;
77078;SDS011;66004;55.096;38.760;2023-09-19T11:07:11;9.45;;;5.55;;
77078;SDS011;66004;55.096;38.760;2023-09-19T11:09:49;13.48;;;5.80;;
77078;SDS011;66004;55.096;38.760;2023-09-19T11:14:57;13.10;;;6.22;;
77078;SDS011;66004;55.096;38.760;2023-09-19T11:30:41;11.43;;;5.97;;
77078;SDS011;66004;55.096;38.760;2023-09-19T11:46:31;12.73;;;5.60;;
77078;SDS011;66004;55.096;38.760;2023-09-19T11:49:17;13.55;;;5.88;;
77078;SDS011;66004;55.096;38.760;2023-09-19T11:51:50;13.63;;;5.78;;
77078;SDS011;66004;55.096;38.760;2023-09-19T11:54:19;9.80;;;5.78;;
77078;SDS011;66004;55.096;38.760;2023-09-19T11:56:49;14.18;;;5.95;;
77078;SDS011;66004;55.096;38.760;2023-09-19T11:59:26;12.15;;;5.45;;
77078;SDS011;66004;55.096;38.760;2023-09-19T12:04:44;12.88;;;5.30;;
77078;SDS011;66004;55.096;38.760;2023-09-19T12:07:15;18.20;;;5.82;;
77078;SDS011;66004;55.096;38.760;2023-09-19T12:09:44;13.35;;;5.38;;
77078;SDS011;66004;55.096;38.760;2023-09-19T12:12:24;10.70;;;4.65;;
77078;SDS011;66004;55.096;38.760;2023-09-19T12:15:00;11.68;;;5.60;;
77078;SDS011;66004;55.096;38.760;2023-09-19T12:17:37;9.65;;;5.28;;
77078;SDS011;66004;55.096;38.760;2023-09-19T12:20:10;14.20;;;5.38;;
77078;SDS011;66004;55.096;38.760;2023-09-19T12:22:41;14.23;;;5.53;;
77078;SDS011;66004;55.096;38.760;2023-09-19T12:25:11;10.75;;;5.57;;
77078;SDS011;66004;55.096;38.760;2023-09-19T12:27:45;11.73;;;5.82;;
77078;SDS011;66004;55.096;38.760;2023-09-19T12:30:22;13.18;;;5.18;;
77078;SDS011;66004;55.096;38.760;2023-09-19T12:32:53;12.98;;;5.85;;
77078;SDS011;66004;55.096;38.760;2023-09-19T12:35:29;11.77;;;5.63;;
77078;SDS011;66004;55.096;38.760;2023-09-19T12:37:55;10.73;;;5.43;;
77078;SDS011;66004;55.096;38.760;2023-09-19T12:40:22;14.30;;;5.88;;
77078;SDS011;66004;55.096;38.760;2023-09-19T12:42:52;12.02;;;5.40;;
77078;SDS011;66004;55.096;38.760;2023-09-19T12:45:20;12.95;;;5.07;;
77078;SDS011;66004;55.096;38.760;2023-09-19T12:51:04;13.52;;;5.95;;
77078;SDS011;66004;55.096;38.760;2023-09-19T12:53:35;13.60;;;4.97;;
77078;SDS011;66004;55.096;38.760;2023-09-19T12:56:07;12.90;;;5.70;;
77078;SDS011;66004;55.096;38.760;2023-09-19T12:58:47;18.08;;;5.80;;
77078;SDS011;66004;55.096;38.760;2023-09-19T13:01:19;11.05;;;5.35;;
77078;SDS011;66004;55.096;38.760;2023-09-19T13:03:44;17.73;;;6.53;;
77078;SDS011;66004;55.096;38.760;2023-09-19T13:06:11;14.27;;;5.65;;
77078;SDS011;66004;55.096;38.760;2023-09-19T13:08:38;14.13;;;5.40;;
77078;SDS011;66004;55.096;38.760;2023-09-19T13:22:04;12.32;;;6.28;;
77078;SDS011;66004;55.096;38.760;2023-09-19T13:24:50;11.90;;;5.40;;
77078;SDS011;66004;55.096;38.760;2023-09-19T13:27:16;10.30;;;5.22;;
77078;SDS011;66004;55.096;38.760;2023-09-19T13:29:42;14.02;;;6.20;;
77078;SDS011;66004;55.096;38.760;2023-09-19T13:32:07;12.05;;;5.80;;
77078;SDS011;66004;55.096;38.760;2023-09-19T13:34:36;13.18;;;7.13;;
77078;SDS011;66004;55.096;38.760;2023-09-19T13:37:03;9.73;;;5.43;;
77078;SDS011;66004;55.096;38.760;2023-09-19T13:39:29;15.70;;;6.13;;
77078;SDS011;66004;55.096;38.760;2023-09-19T13:41:55;16.23;;;6.53;;
77078;SDS011;66004;55.096;38.760;2023-09-19T13:44:20;12.95;;;5.90;;
77078;SDS011;66004;55.096;38.760;2023-09-19T13:46:46;12.80;;;5.85;;
77078;SDS011;66004;55.096;38.760;2023-09-19T13:49:11;15.13;;;7.30;;
77078;SDS011;66004;55.096;38.760;2023-09-19T13:51:37;15.65;;;6.65;;
77078;SDS011;66004;55.096;38.760;2023-09-19T13:54:02;13.35;;;6.90;;
77078;SDS011;66004;55.096;38.760;2023-09-19T13:56:28;16.35;;;6.82;;
77078;SDS011;66004;55.096;38.760;2023-09-19T13:58:56;13.95;;;6.28;;
77078;SDS011;66004;55.096;38.760;2023-09-19T14:01:21;17.17;;;6.95;;
77078;SDS011;66004;55.096;38.760;2023-09-19T14:03:53;18.52;;;7.65;;
77078;SDS011;66004;55.096;38.760;2023-09-19T14:06:20;14.57;;;7.00;;
77078;SDS011;66004;55.096;38.760;2023-09-19T14:08:46;13.65;;;6.68;;
77078;SDS011;66004;55.096;38.760;2023-09-19T14:11:13;17.75;;;7.93;;
77078;SDS011;66004;55.096;38.760;2023-09-19T14:13:39;25.02;;;9.60;;
77078;SDS011;66004;55.096;38.760;2023-09-19T14:16:08;18.08;;;7.68;;
77078;SDS011;66004;55.096;38.760;2023-09-19T14:18:34;19.73;;;8.80;;
77078;SDS011;66004;55.096;38.760;2023-09-19T14:21:06;25.67;;;9.35;;
77078;SDS011;66004;55.096;38.760;2023-09-19T14:23:36;18.27;;;8.23;;
77078;SDS011;66004;55.096;38.760;2023-09-19T14:26:02;14.82;;;7.90;;
77078;SDS011;66004;55.096;38.760;2023-09-19T14:28:28;22.45;;;8.98;;
77078;SDS011;66004;55.096;38.760;2023-09-19T14:30:55;14.38;;;8.15;;
77078;SDS011;66004;55.096;38.760;2023-09-19T14:33:21;24.75;;;9.05;;
77078;SDS011;66004;55.096;38.760;2023-09-19T14:35:47;20.33;;;8.57;;
77078;SDS011;66004;55.096;38.760;2023-09-19T14:38:13;25.38;;;10.02;;
77078;SDS011;66004;55.096;38.760;2023-09-19T14:40:39;20.23;;;9.45;;
77078;SDS011;66004;55.096;38.760;2023-09-19T14:43:05;19.80;;;8.65;;
77078;SDS011;66004;55.096;38.760;2023-09-19T14:45:35;19.95;;;9.77;;
77078;SDS011;66004;55.096;38.760;2023-09-19T14:48:01;22.42;;;9.57;;
77078;SDS011;66004;55.096;38.760;2023-09-19T14:50:30;16.42;;;7.93;;
77078;SDS011;66004;55.096;38.760;2023-09-19T14:52:56;16.23;;;8.48;;
77078;SDS011;66004;55.096;38.760;2023-09-19T14:55:21;19.50;;;9.10;;
77078;SDS011;66004;55.096;38.760;2023-09-19T14:57:51;16.25;;;7.15;;
77078;SDS011;66004;55.096;38.760;2023-09-19T15:00:18;13.75;;;7.03;;
77078;SDS011;66004;55.096;38.760;2023-09-19T15:02:45;13.10;;;6.80;;
77078;SDS011;66004;55.096;38.760;2023-09-19T15:05:13;18.23;;;7.22;;
77078;SDS011;66004;55.096;38.760;2023-09-19T15:07:40;12.05;;;6.68;;
77078;SDS011;66004;55.096;38.760;2023-09-19T15:10:06;11.60;;;6.57;;
77078;SDS011;66004;55.096;38.760;2023-09-19T15:12:35;16.17;;;7.32;;
77078;SDS011;66004;55.096;38.760;2023-09-19T15:15:03;17.02;;;8.10;;
77078;SDS011;66004;55.096;38.760;2023-09-19T15:17:33;14.82;;;7.72;;
77078;SDS011;66004;55.096;38.760;2023-09-19T15:19:59;13.73;;;7.75;;
77078;SDS011;66004;55.096;38.760;2023-09-19T15:22:24;12.65;;;7.18;;
77078;SDS011;66004;55.096;38.760;2023-09-19T15:24:50;18.70;;;7.75;;
77078;SDS011;66004;55.096;38.760;2023-09-19T15:27:16;15.07;;;6.95;;
77078;SDS011;66004;55.096;38.760;2023-09-19T15:29:45;16.67;;;7.72;;
77078;SDS011;66004;55.096;38.760;2023-09-19T15:32:11;12.75;;;7.47;;
77078;SDS011;66004;55.096;38.760;2023-09-19T15:34:37;13.48;;;7.05;;
77078;SDS011;66004;55.096;38.760;2023-09-19T15:37:02;18.67;;;7.00;;
77078;SDS011;66004;55.096;38.760;2023-09-19T15:39:31;15.63;;;7.80;;
77078;SDS011;66004;55.096;38.760;2023-09-19T15:41:59;20.33;;;7.05;;
77078;SDS011;66004;55.096;38.760;2023-09-19T15:44:24;15.50;;;6.93;;
77078;SDS011;66004;55.096;38.760;2023-09-19T15:46:53;13.05;;;7.90;;
77078;SDS011;66004;55.096;38.760;2023-09-19T15:49:18;15.25;;;7.55;;
77078;SDS011;66004;55.096;38.760;2023-09-19T15:51:44;12.90;;;6.68;;